sensor_id;sensor_type;location;lat;lon;timestamp;temperature;humidity
31967;DHT22;18496;52.042;6.812;2023-08-12T00:01:17;26.90;99.90
31967;DHT22;18496;52.042;6.812;2023-08-12T00:03:21;27.00;99.90
31967;DHT22;18496;52.042;6.812;2023-08-12T00:05:25;27.00;99.90
31967;DHT22;18496;52.042;6.812;2023-08-12T00:07:29;26.90;99.90
31967;DHT22;18496;52.042;6.812;2023-08-12T00:09:33;26.90;99.90
31967;DHT22;18496;52.042;6.812;2023-08-12T00:11:38;26.90;99.90
31967;DHT22;18496;52.042;6.812;2023-08-12T00:13:41;27.00;99.90
31967;DHT22;18496;52.042;6.812;2023-08-12T00:15:45;27.00;99.90
31967;DHT22;18496;52.042;6.812;2023-08-12T00:17:49;26.90;99.90
31967;DHT22;18496;52.042;6.812;2023-08-12T00:19:53;26.90;99.90
31967;DHT22;18496;52.042;6.812;2023-08-12T00:21:57;26.90;99.90
31967;DHT22;18496;52.042;6.812;2023-08-12T00:24:01;26.90;99.90
31967;DHT22;18496;52.042;6.812;2023-08-12T00:26:04;26.80;99.90
31967;DHT22;18496;52.042;6.812;2023-08-12T00:28:08;26.70;99.90
31967;DHT22;18496;52.042;6.812;2023-08-12T00:30:13;26.60;99.90
31967;DHT22;18496;52.042;6.812;2023-08-12T00:32:18;26.60;99.90
31967;DHT22;18496;52.042;6.812;2023-08-12T00:34:23;26.60;99.90
31967;DHT22;18496;52.042;6.812;2023-08-12T00:36:27;26.60;99.90
31967;DHT22;18496;52.042;6.812;2023-08-12T00:38:32;26.60;99.90
31967;DHT22;18496;52.042;6.812;2023-08-12T00:40:36;26.60;99.90
31967;DHT22;18496;52.042;6.812;2023-08-12T00:42:40;26.50;99.90
31967;DHT22;18496;52.042;6.812;2023-08-12T00:44:44;26.50;99.90
31967;DHT22;18496;52.042;6.812;2023-08-12T00:46:48;26.50;99.90
31967;DHT22;18496;52.042;6.812;2023-08-12T00:48:52;26.40;99.90
31967;DHT22;18496;52.042;6.812;2023-08-12T00:50:56;26.50;99.90
31967;DHT22;18496;52.042;6.812;2023-08-12T00:53:00;26.40;99.90
31967;DHT22;18496;52.042;6.812;2023-08-12T00:55:04;26.40;99.90
31967;DHT22;18496;52.042;6.812;2023-08-12T00:57:08;26.40;99.90
31967;DHT22;18496;52.042;6.812;2023-08-12T00:59:13;26.40;99.90
31967;DHT22;18496;52.042;6.812;2023-08-12T01:01:17;26.30;99.90
31967;DHT22;18496;52.042;6.812;2023-08-12T01:03:21;26.30;99.90
31967;DHT22;18496;52.042;6.812;2023-08-12T01:05:25;26.30;99.90
31967;DHT22;18496;52.042;6.812;2023-08-12T01:07:29;26.40;99.90
31967;DHT22;18496;52.042;6.812;2023-08-12T01:09:33;26.30;99.90
31967;DHT22;18496;52.042;6.812;2023-08-12T01:14:07;26.30;99.90
31967;DHT22;18496;52.042;6.812;2023-08-12T01:16:14;26.30;99.90
31967;DHT22;18496;52.042;6.812;2023-08-12T01:18:20;26.20;99.90
31967;DHT22;18496;52.042;6.812;2023-08-12T01:20:25;26.10;99.90
31967;DHT22;18496;52.042;6.812;2023-08-12T01:22:30;26.00;99.90
31967;DHT22;18496;52.042;6.812;2023-08-12T01:24:37;26.00;99.90
31967;DHT22;18496;52.042;6.812;2023-08-12T01:26:42;26.10;99.90
31967;DHT22;18496;52.042;6.812;2023-08-12T01:28:46;26.10;99.90
31967;DHT22;18496;52.042;6.812;2023-08-12T01:31:00;26.10;99.90
31967;DHT22;18496;52.042;6.812;2023-08-12T01:33:14;26.10;99.90
31967;DHT22;18496;52.042;6.812;2023-08-12T01:35:40;26.00;99.90
31967;DHT22;18496;52.042;6.812;2023-08-12T01:37:45;26.00;99.90
31967;DHT22;18496;52.042;6.812;2023-08-12T01:39:49;26.00;99.90
31967;DHT22;18496;52.042;6.812;2023-08-12T01:41:53;26.00;99.90
31967;DHT22;18496;52.042;6.812;2023-08-12T01:43:58;26.10;99.90
31967;DHT22;18496;52.042;6.812;2023-08-12T01:46:02;26.10;99.90
31967;DHT22;18496;52.042;6.812;2023-08-12T01:48:06;26.00;99.90
31967;DHT22;18496;52.042;6.812;2023-08-12T01:50:10;26.00;99.90
31967;DHT22;18496;52.042;6.812;2023-08-12T01:52:14;25.90;99.90
31967;DHT22;18496;52.042;6.812;2023-08-12T01:54:18;25.80;99.90
31967;DHT22;18496;52.042;6.812;2023-08-12T01:56:22;25.80;99.90
31967;DHT22;18496;52.042;6.812;2023-08-12T01:58:26;25.80;99.90
31967;DHT22;18496;52.042;6.812;2023-08-12T02:00:30;25.80;99.90
31967;DHT22;18496;52.042;6.812;2023-08-12T02:02:34;25.80;99.90
31967;DHT22;18496;52.042;6.812;2023-08-12T02:04:40;25.70;99.90
31967;DHT22;18496;52.042;6.812;2023-08-12T02:06:44;25.70;99.90
31967;DHT22;18496;52.042;6.812;2023-08-12T02:08:47;25.70;99.90
31967;DHT22;18496;52.042;6.812;2023-08-12T02:10:51;25.70;99.90
31967;DHT22;18496;52.042;6.812;2023-08-12T02:12:55;25.70;99.90
31967;DHT22;18496;52.042;6.812;2023-08-12T02:14:59;25.60;99.90
31967;DHT22;18496;52.042;6.812;2023-08-12T02:17:03;25.60;99.90
31967;DHT22;18496;52.042;6.812;2023-08-12T02:19:09;25.50;99.90
31967;DHT22;18496;52.042;6.812;2023-08-12T02:21:13;25.40;99.90
31967;DHT22;18496;52.042;6.812;2023-08-12T02:23:16;25.40;99.90
31967;DHT22;18496;52.042;6.812;2023-08-12T02:25:20;25.30;99.90
31967;DHT22;18496;52.042;6.812;2023-08-12T02:27:24;25.30;99.90
31967;DHT22;18496;52.042;6.812;2023-08-12T02:29:28;25.30;99.90
31967;DHT22;18496;52.042;6.812;2023-08-12T02:31:33;25.30;99.90
31967;DHT22;18496;52.042;6.812;2023-08-12T02:33:36;25.30;99.90
31967;DHT22;18496;52.042;6.812;2023-08-12T02:35:40;25.30;99.90
31967;DHT22;18496;52.042;6.812;2023-08-12T02:37:44;25.30;99.90
31967;DHT22;18496;52.042;6.812;2023-08-12T02:39:48;25.40;99.90
31967;DHT22;18496;52.042;6.812;2023-08-12T02:41:52;25.40;99.90
31967;DHT22;18496;52.042;6.812;2023-08-12T02:43:56;25.40;99.90
31967;DHT22;18496;52.042;6.812;2023-08-12T02:46:00;25.50;99.90
31967;DHT22;18496;52.042;6.812;2023-08-12T02:48:04;25.50;99.90
31967;DHT22;18496;52.042;6.812;2023-08-12T02:50:08;25.50;99.90
31967;DHT22;18496;52.042;6.812;2023-08-12T02:52:12;25.50;99.90
31967;DHT22;18496;52.042;6.812;2023-08-12T02:54:16;25.50;99.90
31967;DHT22;18496;52.042;6.812;2023-08-12T02:56:20;25.50;99.90
31967;DHT22;18496;52.042;6.812;2023-08-12T02:58:24;25.40;99.90
31967;DHT22;18496;52.042;6.812;2023-08-12T03:00:28;25.40;99.90
31967;DHT22;18496;52.042;6.812;2023-08-12T03:02:32;25.30;99.90
31967;DHT22;18496;52.042;6.812;2023-08-12T03:04:35;25.30;99.90
31967;DHT22;18496;52.042;6.812;2023-08-12T03:06:39;25.20;99.90
31967;DHT22;18496;52.042;6.812;2023-08-12T03:08:43;25.20;99.90
31967;DHT22;18496;52.042;6.812;2023-08-12T03:10:47;25.10;99.90
31967;DHT22;18496;52.042;6.812;2023-08-12T03:12:52;25.10;99.90
31967;DHT22;18496;52.042;6.812;2023-08-12T03:14:58;25.10;99.90
31967;DHT22;18496;52.042;6.812;2023-08-12T03:17:02;25.10;99.90
31967;DHT22;18496;52.042;6.812;2023-08-12T03:19:08;25.10;99.90
31967;DHT22;18496;52.042;6.812;2023-08-12T03:21:12;25.10;99.90
31967;DHT22;18496;52.042;6.812;2023-08-12T03:23:17;25.10;99.90
31967;DHT22;18496;52.042;6.812;2023-08-12T03:25:21;25.10;99.90
31967;DHT22;18496;52.042;6.812;2023-08-12T03:27:26;25.10;99.90
31967;DHT22;18496;52.042;6.812;2023-08-12T03:29:30;25.10;99.90
31967;DHT22;18496;52.042;6.812;2023-08-12T03:31:35;25.00;99.90
31967;DHT22;18496;52.042;6.812;2023-08-12T03:33:39;25.00;99.90
31967;DHT22;18496;52.042;6.812;2023-08-12T03:35:48;24.90;99.90
31967;DHT22;18496;52.042;6.812;2023-08-12T03:37:52;25.00;99.90
31967;DHT22;18496;52.042;6.812;2023-08-12T03:39:57;25.00;99.90
31967;DHT22;18496;52.042;6.812;2023-08-12T03:42:01;25.00;99.90
31967;DHT22;18496;52.042;6.812;2023-08-12T03:44:06;25.00;99.90
31967;DHT22;18496;52.042;6.812;2023-08-12T03:46:10;24.90;99.90
31967;DHT22;18496;52.042;6.812;2023-08-12T03:48:15;24.90;99.90
31967;DHT22;18496;52.042;6.812;2023-08-12T03:50:19;24.90;99.90
31967;DHT22;18496;52.042;6.812;2023-08-12T03:52:23;24.90;99.90
31967;DHT22;18496;52.042;6.812;2023-08-12T03:54:27;24.90;99.90
31967;DHT22;18496;52.042;6.812;2023-08-12T03:56:31;24.80;99.90
31967;DHT22;18496;52.042;6.812;2023-08-12T03:58:38;24.80;99.90
31967;DHT22;18496;52.042;6.812;2023-08-12T04:00:42;24.80;99.90
31967;DHT22;18496;52.042;6.812;2023-08-12T04:02:47;24.80;99.90
31967;DHT22;18496;52.042;6.812;2023-08-12T04:04:51;24.80;99.90
31967;DHT22;18496;52.042;6.812;2023-08-12T04:06:55;24.80;99.90
31967;DHT22;18496;52.042;6.812;2023-08-12T04:08:58;24.80;99.90
31967;DHT22;18496;52.042;6.812;2023-08-12T04:11:05;24.70;99.90
31967;DHT22;18496;52.042;6.812;2023-08-12T04:13:09;24.70;99.90
31967;DHT22;18496;52.042;6.812;2023-08-12T04:15:13;24.70;99.90
31967;DHT22;18496;52.042;6.812;2023-08-12T04:17:17;24.70;99.90
31967;DHT22;18496;52.042;6.812;2023-08-12T04:19:21;24.70;99.90
31967;DHT22;18496;52.042;6.812;2023-08-12T04:21:25;24.70;99.90
31967;DHT22;18496;52.042;6.812;2023-08-12T04:23:28;24.80;99.90
31967;DHT22;18496;52.042;6.812;2023-08-12T04:25:32;24.80;99.90
31967;DHT22;18496;52.042;6.812;2023-08-12T04:27:37;24.80;99.90
31967;DHT22;18496;52.042;6.812;2023-08-12T04:29:41;24.80;99.90
31967;DHT22;18496;52.042;6.812;2023-08-12T04:31:45;24.70;99.90
31967;DHT22;18496;52.042;6.812;2023-08-12T04:33:49;24.70;99.90
31967;DHT22;18496;52.042;6.812;2023-08-12T04:35:57;24.70;99.90
31967;DHT22;18496;52.042;6.812;2023-08-12T04:38:02;24.70;99.90
31967;DHT22;18496;52.042;6.812;2023-08-12T04:40:07;24.60;99.90
31967;DHT22;18496;52.042;6.812;2023-08-12T04:42:11;24.50;99.90
31967;DHT22;18496;52.042;6.812;2023-08-12T04:44:16;24.50;99.90
31967;DHT22;18496;52.042;6.812;2023-08-12T04:46:19;24.60;99.90
31967;DHT22;18496;52.042;6.812;2023-08-12T04:48:24;24.60;99.90
31967;DHT22;18496;52.042;6.812;2023-08-12T04:50:31;24.60;99.90
31967;DHT22;18496;52.042;6.812;2023-08-12T04:52:35;24.60;99.90
31967;DHT22;18496;52.042;6.812;2023-08-12T04:54:39;24.60;99.90
31967;DHT22;18496;52.042;6.812;2023-08-12T04:56:43;24.60;99.90
31967;DHT22;18496;52.042;6.812;2023-08-12T04:58:48;24.50;99.90
31967;DHT22;18496;52.042;6.812;2023-08-12T05:00:52;24.50;99.90
31967;DHT22;18496;52.042;6.812;2023-08-12T05:02:57;24.50;99.90
31967;DHT22;18496;52.042;6.812;2023-08-12T05:05:02;24.50;99.90
31967;DHT22;18496;52.042;6.812;2023-08-12T05:07:09;24.40;99.90
31967;DHT22;18496;52.042;6.812;2023-08-12T05:09:14;24.40;99.90
31967;DHT22;18496;52.042;6.812;2023-08-12T05:11:19;24.40;99.90
31967;DHT22;18496;52.042;6.812;2023-08-12T05:13:23;24.40;99.90
31967;DHT22;18496;52.042;6.812;2023-08-12T05:15:27;24.40;99.90
31967;DHT22;18496;52.042;6.812;2023-08-12T05:17:32;24.40;99.90
31967;DHT22;18496;52.042;6.812;2023-08-12T05:19:36;24.40;99.90
31967;DHT22;18496;52.042;6.812;2023-08-12T05:21:40;24.40;99.90
31967;DHT22;18496;52.042;6.812;2023-08-12T05:23:44;24.40;99.90
31967;DHT22;18496;52.042;6.812;2023-08-12T05:25:48;24.50;99.90
31967;DHT22;18496;52.042;6.812;2023-08-12T05:27:52;24.40;99.90
31967;DHT22;18496;52.042;6.812;2023-08-12T05:29:56;24.40;99.90
31967;DHT22;18496;52.042;6.812;2023-08-12T05:32:00;24.40;99.90
31967;DHT22;18496;52.042;6.812;2023-08-12T05:34:04;24.50;99.90
31967;DHT22;18496;52.042;6.812;2023-08-12T05:36:08;24.40;99.90
31967;DHT22;18496;52.042;6.812;2023-08-12T05:38:12;24.40;99.90
31967;DHT22;18496;52.042;6.812;2023-08-12T05:40:16;24.30;99.90
31967;DHT22;18496;52.042;6.812;2023-08-12T05:42:20;24.30;99.90
31967;DHT22;18496;52.042;6.812;2023-08-12T05:44:24;24.20;99.90
31967;DHT22;18496;52.042;6.812;2023-08-12T05:46:31;24.20;99.90
31967;DHT22;18496;52.042;6.812;2023-08-12T05:48:35;24.10;99.90
31967;DHT22;18496;52.042;6.812;2023-08-12T05:50:38;24.10;99.90
31967;DHT22;18496;52.042;6.812;2023-08-12T05:52:43;24.10;99.90
31967;DHT22;18496;52.042;6.812;2023-08-12T05:54:47;24.10;99.90
31967;DHT22;18496;52.042;6.812;2023-08-12T05:56:51;24.20;99.90
31967;DHT22;18496;52.042;6.812;2023-08-12T05:58:55;24.20;99.90
31967;DHT22;18496;52.042;6.812;2023-08-12T06:00:58;24.30;99.90
31967;DHT22;18496;52.042;6.812;2023-08-12T06:03:02;24.30;99.90
31967;DHT22;18496;52.042;6.812;2023-08-12T06:05:07;24.20;99.90
31967;DHT22;18496;52.042;6.812;2023-08-12T06:07:11;24.20;99.90
31967;DHT22;18496;52.042;6.812;2023-08-12T06:09:15;24.20;99.90
31967;DHT22;18496;52.042;6.812;2023-08-12T06:11:19;24.10;99.90
31967;DHT22;18496;52.042;6.812;2023-08-12T06:13:23;24.20;99.90
31967;DHT22;18496;52.042;6.812;2023-08-12T06:15:26;24.30;99.90
31967;DHT22;18496;52.042;6.812;2023-08-12T06:17:30;24.30;99.90
31967;DHT22;18496;52.042;6.812;2023-08-12T06:19:34;24.30;99.90
31967;DHT22;18496;52.042;6.812;2023-08-12T06:21:38;24.40;99.90
31967;DHT22;18496;52.042;6.812;2023-08-12T06:23:42;24.40;99.90
31967;DHT22;18496;52.042;6.812;2023-08-12T06:25:46;24.50;99.90
31967;DHT22;18496;52.042;6.812;2023-08-12T06:27:50;24.50;99.90
31967;DHT22;18496;52.042;6.812;2023-08-12T06:29:54;24.50;99.90
31967;DHT22;18496;52.042;6.812;2023-08-12T06:31:57;24.50;99.90
31967;DHT22;18496;52.042;6.812;2023-08-12T06:34:01;24.40;99.90
31967;DHT22;18496;52.042;6.812;2023-08-12T06:36:06;24.30;99.90
31967;DHT22;18496;52.042;6.812;2023-08-12T06:38:10;24.30;99.90
31967;DHT22;18496;52.042;6.812;2023-08-12T06:40:14;24.30;99.90
31967;DHT22;18496;52.042;6.812;2023-08-12T06:42:18;24.30;99.90
31967;DHT22;18496;52.042;6.812;2023-08-12T06:44:22;24.20;99.90
31967;DHT22;18496;52.042;6.812;2023-08-12T06:46:26;24.20;99.90
31967;DHT22;18496;52.042;6.812;2023-08-12T06:48:29;24.20;99.90
31967;DHT22;18496;52.042;6.812;2023-08-12T06:50:33;24.10;99.90
31967;DHT22;18496;52.042;6.812;2023-08-12T06:52:37;24.10;99.90
31967;DHT22;18496;52.042;6.812;2023-08-12T06:54:41;24.10;99.90
31967;DHT22;18496;52.042;6.812;2023-08-12T06:56:45;24.10;99.90
31967;DHT22;18496;52.042;6.812;2023-08-12T06:58:48;24.00;99.90
31967;DHT22;18496;52.042;6.812;2023-08-12T07:00:52;24.00;99.90
31967;DHT22;18496;52.042;6.812;2023-08-12T07:02:56;23.90;99.90
31967;DHT22;18496;52.042;6.812;2023-08-12T07:05:00;23.80;99.90
31967;DHT22;18496;52.042;6.812;2023-08-12T07:07:04;23.80;99.90
31967;DHT22;18496;52.042;6.812;2023-08-12T07:09:08;23.80;99.90
31967;DHT22;18496;52.042;6.812;2023-08-12T07:11:12;23.70;99.90
31967;DHT22;18496;52.042;6.812;2023-08-12T07:13:15;23.60;99.90
31967;DHT22;18496;52.042;6.812;2023-08-12T07:15:19;23.60;99.90
31967;DHT22;18496;52.042;6.812;2023-08-12T07:17:23;23.60;99.90
31967;DHT22;18496;52.042;6.812;2023-08-12T07:19:27;23.60;99.90
31967;DHT22;18496;52.042;6.812;2023-08-12T07:21:31;23.70;99.90
31967;DHT22;18496;52.042;6.812;2023-08-12T07:23:34;23.70;99.90
31967;DHT22;18496;52.042;6.812;2023-08-12T07:25:38;23.60;99.90
31967;DHT22;18496;52.042;6.812;2023-08-12T07:27:43;23.60;99.90
31967;DHT22;18496;52.042;6.812;2023-08-12T07:29:47;23.60;99.90
31967;DHT22;18496;52.042;6.812;2023-08-12T07:31:52;23.60;99.90
31967;DHT22;18496;52.042;6.812;2023-08-12T07:33:56;23.50;99.90
31967;DHT22;18496;52.042;6.812;2023-08-12T07:36:01;23.40;99.90
31967;DHT22;18496;52.042;6.812;2023-08-12T07:38:04;23.40;99.90
31967;DHT22;18496;52.042;6.812;2023-08-12T07:40:09;23.40;99.90
31967;DHT22;18496;52.042;6.812;2023-08-12T07:42:13;23.40;99.90
31967;DHT22;18496;52.042;6.812;2023-08-12T07:44:17;23.40;99.90
31967;DHT22;18496;52.042;6.812;2023-08-12T07:46:20;23.50;99.90
31967;DHT22;18496;52.042;6.812;2023-08-12T07:48:24;23.50;99.90
31967;DHT22;18496;52.042;6.812;2023-08-12T07:50:29;23.50;99.90
31967;DHT22;18496;52.042;6.812;2023-08-12T07:52:33;23.50;99.90
31967;DHT22;18496;52.042;6.812;2023-08-12T07:54:36;23.50;99.90
31967;DHT22;18496;52.042;6.812;2023-08-12T07:56:40;23.50;99.90
31967;DHT22;18496;52.042;6.812;2023-08-12T07:58:44;23.50;99.90
31967;DHT22;18496;52.042;6.812;2023-08-12T08:00:52;23.50;99.90
31967;DHT22;18496;52.042;6.812;2023-08-12T08:02:57;23.50;99.90
31967;DHT22;18496;52.042;6.812;2023-08-12T08:05:01;23.50;99.90
31967;DHT22;18496;52.042;6.812;2023-08-12T08:07:06;23.60;99.90
31967;DHT22;18496;52.042;6.812;2023-08-12T08:09:10;23.60;99.90
31967;DHT22;18496;52.042;6.812;2023-08-12T08:11:14;23.70;99.90
31967;DHT22;18496;52.042;6.812;2023-08-12T08:13:17;23.80;99.90
31967;DHT22;18496;52.042;6.812;2023-08-12T08:15:21;23.80;99.90
31967;DHT22;18496;52.042;6.812;2023-08-12T08:17:25;23.90;99.90
31967;DHT22;18496;52.042;6.812;2023-08-12T08:19:29;23.90;99.90
31967;DHT22;18496;52.042;6.812;2023-08-12T08:21:33;24.00;99.90
31967;DHT22;18496;52.042;6.812;2023-08-12T08:23:40;23.90;99.90
31967;DHT22;18496;52.042;6.812;2023-08-12T08:25:44;23.90;99.90
31967;DHT22;18496;52.042;6.812;2023-08-12T08:27:48;23.90;99.90
31967;DHT22;18496;52.042;6.812;2023-08-12T08:29:52;23.90;99.90
31967;DHT22;18496;52.042;6.812;2023-08-12T08:31:56;23.80;99.90
31967;DHT22;18496;52.042;6.812;2023-08-12T08:34:00;23.80;99.90
31967;DHT22;18496;52.042;6.812;2023-08-12T08:36:04;23.70;99.90
31967;DHT22;18496;52.042;6.812;2023-08-12T08:38:08;23.60;99.90
31967;DHT22;18496;52.042;6.812;2023-08-12T08:40:12;23.50;99.90
31967;DHT22;18496;52.042;6.812;2023-08-12T08:42:17;23.50;99.90
31967;DHT22;18496;52.042;6.812;2023-08-12T08:44:23;23.50;99.90
31967;DHT22;18496;52.042;6.812;2023-08-12T08:46:27;23.50;99.90
31967;DHT22;18496;52.042;6.812;2023-08-12T08:48:32;23.60;99.90
31967;DHT22;18496;52.042;6.812;2023-08-12T08:50:37;23.60;99.90
31967;DHT22;18496;52.042;6.812;2023-08-12T08:52:41;23.50;99.90
31967;DHT22;18496;52.042;6.812;2023-08-12T08:54:47;23.50;99.90
31967;DHT22;18496;52.042;6.812;2023-08-12T08:56:51;23.50;99.90
31967;DHT22;18496;52.042;6.812;2023-08-12T08:58:55;23.50;99.90
31967;DHT22;18496;52.042;6.812;2023-08-12T09:00:59;23.40;99.90
31967;DHT22;18496;52.042;6.812;2023-08-12T09:03:05;23.40;99.90
31967;DHT22;18496;52.042;6.812;2023-08-12T09:05:09;23.40;99.90
31967;DHT22;18496;52.042;6.812;2023-08-12T09:07:13;23.40;99.90
31967;DHT22;18496;52.042;6.812;2023-08-12T09:09:19;23.40;99.90
31967;DHT22;18496;52.042;6.812;2023-08-12T09:11:24;23.40;99.90
31967;DHT22;18496;52.042;6.812;2023-08-12T09:13:28;23.40;99.90
31967;DHT22;18496;52.042;6.812;2023-08-12T09:15:32;23.30;99.90
31967;DHT22;18496;52.042;6.812;2023-08-12T09:17:37;23.20;99.90
31967;DHT22;18496;52.042;6.812;2023-08-12T09:19:40;23.20;99.90
31967;DHT22;18496;52.042;6.812;2023-08-12T09:21:52;23.30;99.90
31967;DHT22;18496;52.042;6.812;2023-08-12T09:23:57;23.20;99.90
31967;DHT22;18496;52.042;6.812;2023-08-12T09:26:18;23.20;99.90
31967;DHT22;18496;52.042;6.812;2023-08-12T09:28:24;23.20;99.90
31967;DHT22;18496;52.042;6.812;2023-08-12T09:30:29;23.20;99.90
31967;DHT22;18496;52.042;6.812;2023-08-12T09:32:34;23.10;99.90
31967;DHT22;18496;52.042;6.812;2023-08-12T09:34:52;23.10;99.90
31967;DHT22;18496;52.042;6.812;2023-08-12T09:36:56;23.10;99.90
31967;DHT22;18496;52.042;6.812;2023-08-12T09:39:05;23.20;99.90
31967;DHT22;18496;52.042;6.812;2023-08-12T09:41:09;23.20;99.90
31967;DHT22;18496;52.042;6.812;2023-08-12T09:43:13;23.20;99.90
31967;DHT22;18496;52.042;6.812;2023-08-12T09:45:16;23.20;99.90
31967;DHT22;18496;52.042;6.812;2023-08-12T09:47:25;23.20;99.90
31967;DHT22;18496;52.042;6.812;2023-08-12T09:49:30;23.10;99.90
31967;DHT22;18496;52.042;6.812;2023-08-12T09:51:37;23.10;99.90
31967;DHT22;18496;52.042;6.812;2023-08-12T09:53:43;23.20;99.90
31967;DHT22;18496;52.042;6.812;2023-08-12T09:55:47;23.20;99.90
31967;DHT22;18496;52.042;6.812;2023-08-12T09:57:53;23.20;99.90
31967;DHT22;18496;52.042;6.812;2023-08-12T09:59:58;23.20;99.90
31967;DHT22;18496;52.042;6.812;2023-08-12T10:02:03;23.20;99.90
31967;DHT22;18496;52.042;6.812;2023-08-12T10:04:11;23.20;99.90
31967;DHT22;18496;52.042;6.812;2023-08-12T10:06:18;23.10;99.90
31967;DHT22;18496;52.042;6.812;2023-08-12T10:08:23;23.10;99.90
31967;DHT22;18496;52.042;6.812;2023-08-12T10:10:27;23.10;99.90
31967;DHT22;18496;52.042;6.812;2023-08-12T10:12:34;23.10;99.90
31967;DHT22;18496;52.042;6.812;2023-08-12T10:14:38;23.20;99.90
31967;DHT22;18496;52.042;6.812;2023-08-12T10:16:46;23.20;99.90
31967;DHT22;18496;52.042;6.812;2023-08-12T10:18:50;23.30;99.90
31967;DHT22;18496;52.042;6.812;2023-08-12T10:20:57;23.30;99.90
31967;DHT22;18496;52.042;6.812;2023-08-12T10:23:02;23.40;99.90
31967;DHT22;18496;52.042;6.812;2023-08-12T10:25:07;23.40;99.90
31967;DHT22;18496;52.042;6.812;2023-08-12T10:27:14;23.30;99.90
31967;DHT22;18496;52.042;6.812;2023-08-12T10:29:20;23.30;99.90
31967;DHT22;18496;52.042;6.812;2023-08-12T10:31:26;23.30;99.90
31967;DHT22;18496;52.042;6.812;2023-08-12T10:33:30;23.30;99.90
31967;DHT22;18496;52.042;6.812;2023-08-12T10:35:45;23.30;99.90
31967;DHT22;18496;52.042;6.812;2023-08-12T10:37:49;23.30;99.90
31967;DHT22;18496;52.042;6.812;2023-08-12T10:39:56;23.20;99.90
31967;DHT22;18496;52.042;6.812;2023-08-12T10:42:00;23.20;99.90
31967;DHT22;18496;52.042;6.812;2023-08-12T10:44:05;23.10;99.90
31967;DHT22;18496;52.042;6.812;2023-08-12T10:46:34;23.10;99.90
31967;DHT22;18496;52.042;6.812;2023-08-12T10:48:59;23.10;99.90
31967;DHT22;18496;52.042;6.812;2023-08-12T10:51:05;23.10;99.90
31967;DHT22;18496;52.042;6.812;2023-08-12T10:53:27;23.10;99.90
31967;DHT22;18496;52.042;6.812;2023-08-12T10:55:36;23.10;99.90
31967;DHT22;18496;52.042;6.812;2023-08-12T10:57:40;23.20;99.90
31967;DHT22;18496;52.042;6.812;2023-08-12T11:01:48;23.30;99.90
31967;DHT22;18496;52.042;6.812;2023-08-12T11:03:52;23.30;99.90
31967;DHT22;18496;52.042;6.812;2023-08-12T11:05:59;23.30;99.90
31967;DHT22;18496;52.042;6.812;2023-08-12T11:08:05;23.30;99.90
31967;DHT22;18496;52.042;6.812;2023-08-12T11:12:17;23.40;99.90
31967;DHT22;18496;52.042;6.812;2023-08-12T11:14:24;23.50;99.90
31967;DHT22;18496;52.042;6.812;2023-08-12T11:16:37;23.60;99.90
31967;DHT22;18496;52.042;6.812;2023-08-12T11:18:41;23.70;99.90
31967;DHT22;18496;52.042;6.812;2023-08-12T11:20:47;23.80;99.90
31967;DHT22;18496;52.042;6.812;2023-08-12T11:22:51;23.80;99.90
31967;DHT22;18496;52.042;6.812;2023-08-12T11:24:56;23.80;99.90
31967;DHT22;18496;52.042;6.812;2023-08-12T11:27:00;23.90;99.90
31967;DHT22;18496;52.042;6.812;2023-08-12T11:29:11;24.00;99.90
31967;DHT22;18496;52.042;6.812;2023-08-12T11:31:16;23.90;99.90
31967;DHT22;18496;52.042;6.812;2023-08-12T11:33:20;23.80;99.90
31967;DHT22;18496;52.042;6.812;2023-08-12T11:35:25;23.70;99.90
31967;DHT22;18496;52.042;6.812;2023-08-12T11:37:29;23.60;99.90
31967;DHT22;18496;52.042;6.812;2023-08-12T11:39:34;23.60;99.90
31967;DHT22;18496;52.042;6.812;2023-08-12T11:41:38;23.70;99.90
31967;DHT22;18496;52.042;6.812;2023-08-12T11:43:42;23.70;99.90
31967;DHT22;18496;52.042;6.812;2023-08-12T11:45:45;23.80;99.90
31967;DHT22;18496;52.042;6.812;2023-08-12T11:47:49;23.80;99.90
31967;DHT22;18496;52.042;6.812;2023-08-12T11:49:56;23.90;99.90
31967;DHT22;18496;52.042;6.812;2023-08-12T11:52:00;23.90;99.90
31967;DHT22;18496;52.042;6.812;2023-08-12T11:54:04;24.00;99.90
31967;DHT22;18496;52.042;6.812;2023-08-12T11:56:08;24.00;99.90
31967;DHT22;18496;52.042;6.812;2023-08-12T11:58:14;24.00;99.90
31967;DHT22;18496;52.042;6.812;2023-08-12T12:00:25;24.10;99.90
31967;DHT22;18496;52.042;6.812;2023-08-12T12:02:29;24.20;99.90
31967;DHT22;18496;52.042;6.812;2023-08-12T12:04:33;24.30;99.90
31967;DHT22;18496;52.042;6.812;2023-08-12T12:06:37;24.30;99.90
31967;DHT22;18496;52.042;6.812;2023-08-12T12:08:43;24.40;99.90
31967;DHT22;18496;52.042;6.812;2023-08-12T12:10:47;24.40;99.90
31967;DHT22;18496;52.042;6.812;2023-08-12T12:12:51;24.40;99.90
31967;DHT22;18496;52.042;6.812;2023-08-12T12:14:56;24.40;99.90
31967;DHT22;18496;52.042;6.812;2023-08-12T12:16:59;24.50;99.90
31967;DHT22;18496;52.042;6.812;2023-08-12T12:19:03;24.50;99.90
31967;DHT22;18496;52.042;6.812;2023-08-12T12:21:09;24.50;99.90
31967;DHT22;18496;52.042;6.812;2023-08-12T12:23:15;24.60;99.90
31967;DHT22;18496;52.042;6.812;2023-08-12T12:25:19;24.60;99.90
31967;DHT22;18496;52.042;6.812;2023-08-12T12:27:25;24.60;99.90
31967;DHT22;18496;52.042;6.812;2023-08-12T12:29:29;24.70;99.90
31967;DHT22;18496;52.042;6.812;2023-08-12T12:31:35;24.60;99.90
31967;DHT22;18496;52.042;6.812;2023-08-12T12:33:39;24.60;99.90
31967;DHT22;18496;52.042;6.812;2023-08-12T12:35:43;24.50;99.90
31967;DHT22;18496;52.042;6.812;2023-08-12T12:37:47;24.50;99.90
31967;DHT22;18496;52.042;6.812;2023-08-12T12:39:51;24.40;99.90
31967;DHT22;18496;52.042;6.812;2023-08-12T12:41:55;24.40;99.90
31967;DHT22;18496;52.042;6.812;2023-08-12T12:44:02;24.40;99.90
31967;DHT22;18496;52.042;6.812;2023-08-12T12:46:06;24.40;99.90
31967;DHT22;18496;52.042;6.812;2023-08-12T12:48:11;24.50;99.90
31967;DHT22;18496;52.042;6.812;2023-08-12T12:50:15;24.50;99.90
31967;DHT22;18496;52.042;6.812;2023-08-12T12:52:18;24.70;99.90
31967;DHT22;18496;52.042;6.812;2023-08-12T12:54:22;24.70;99.90
31967;DHT22;18496;52.042;6.812;2023-08-12T12:56:26;24.90;99.90
31967;DHT22;18496;52.042;6.812;2023-08-12T12:58:34;25.00;99.90
31967;DHT22;18496;52.042;6.812;2023-08-12T13:00:38;25.00;99.90
31967;DHT22;18496;52.042;6.812;2023-08-12T13:02:42;25.00;99.90
31967;DHT22;18496;52.042;6.812;2023-08-12T13:04:46;25.10;99.90
31967;DHT22;18496;52.042;6.812;2023-08-12T13:06:50;25.10;99.90
31967;DHT22;18496;52.042;6.812;2023-08-12T13:08:54;25.00;99.90
31967;DHT22;18496;52.042;6.812;2023-08-12T13:10:58;25.00;99.90
31967;DHT22;18496;52.042;6.812;2023-08-12T13:13:02;24.90;99.90
31967;DHT22;18496;52.042;6.812;2023-08-12T13:15:07;24.80;99.90